sensor_id;sensor_type;location;lat;lon;timestamp;P1;durP1;ratioP1;P2;durP2;ratioP2
39074;SDS011;24826;52.070;20.970;2023-05-07T00:02:53;7.53;;;3.15;;
39074;SDS011;24826;52.070;20.970;2023-05-07T00:05:38;5.90;;;3.42;;
39074;SDS011;24826;52.070;20.970;2023-05-07T00:08:23;6.28;;;3.40;;
39074;SDS011;24826;52.070;20.970;2023-05-07T00:11:08;5.20;;;3.13;;
39074;SDS011;24826;52.070;20.970;2023-05-07T00:13:52;5.78;;;3.08;;
39074;SDS011;24826;52.070;20.970;2023-05-07T00:16:36;5.72;;;3.17;;
39074;SDS011;24826;52.070;20.970;2023-05-07T00:19:20;6.90;;;3.00;;
39074;SDS011;24826;52.070;20.970;2023-05-07T00:22:05;5.15;;;2.60;;
39074;SDS011;24826;52.070;20.970;2023-05-07T00:24:51;6.63;;;3.00;;
39074;SDS011;24826;52.070;20.970;2023-05-07T00:27:35;5.13;;;2.85;;
39074;SDS011;24826;52.070;20.970;2023-05-07T00:30:19;7.68;;;3.33;;
39074;SDS011;24826;52.070;20.970;2023-05-07T00:33:04;5.80;;;2.88;;
39074;SDS011;24826;52.070;20.970;2023-05-07T00:35:48;5.32;;;3.15;;
39074;SDS011;24826;52.070;20.970;2023-05-07T00:38:33;6.03;;;3.22;;
39074;SDS011;24826;52.070;20.970;2023-05-07T00:41:17;6.90;;;3.08;;
39074;SDS011;24826;52.070;20.970;2023-05-07T00:44:02;5.82;;;2.90;;
39074;SDS011;24826;52.070;20.970;2023-05-07T00:46:46;5.22;;;2.90;;
39074;SDS011;24826;52.070;20.970;2023-05-07T00:49:43;5.60;;;2.80;;
39074;SDS011;24826;52.070;20.970;2023-05-07T00:52:29;5.95;;;3.00;;
39074;SDS011;24826;52.070;20.970;2023-05-07T00:55:14;5.82;;;2.63;;
39074;SDS011;24826;52.070;20.970;2023-05-07T00:57:58;6.07;;;3.10;;
39074;SDS011;24826;52.070;20.970;2023-05-07T01:00:43;6.50;;;3.15;;
39074;SDS011;24826;52.070;20.970;2023-05-07T01:03:27;4.55;;;2.70;;
39074;SDS011;24826;52.070;20.970;2023-05-07T01:06:12;5.15;;;2.70;;
39074;SDS011;24826;52.070;20.970;2023-05-07T01:09:00;5.55;;;2.90;;
39074;SDS011;24826;52.070;20.970;2023-05-07T01:11:45;5.57;;;2.90;;
39074;SDS011;24826;52.070;20.970;2023-05-07T01:14:30;5.20;;;2.75;;
39074;SDS011;24826;52.070;20.970;2023-05-07T01:17:17;5.65;;;2.90;;
39074;SDS011;24826;52.070;20.970;2023-05-07T01:20:01;4.82;;;2.45;;
39074;SDS011;24826;52.070;20.970;2023-05-07T01:22:46;6.65;;;3.30;;
39074;SDS011;24826;52.070;20.970;2023-05-07T01:25:31;5.95;;;2.78;;
39074;SDS011;24826;52.070;20.970;2023-05-07T01:28:15;5.22;;;2.95;;
39074;SDS011;24826;52.070;20.970;2023-05-07T01:31:01;5.32;;;2.50;;
39074;SDS011;24826;52.070;20.970;2023-05-07T01:33:48;4.00;;;2.40;;
39074;SDS011;24826;52.070;20.970;2023-05-07T01:36:33;5.00;;;2.70;;
39074;SDS011;24826;52.070;20.970;2023-05-07T01:39:19;5.55;;;2.83;;
39074;SDS011;24826;52.070;20.970;2023-05-07T01:42:03;6.63;;;2.47;;
39074;SDS011;24826;52.070;20.970;2023-05-07T01:44:48;4.65;;;2.85;;
39074;SDS011;24826;52.070;20.970;2023-05-07T01:47:32;5.00;;;2.70;;
39074;SDS011;24826;52.070;20.970;2023-05-07T01:50:18;5.05;;;2.60;;
39074;SDS011;24826;52.070;20.970;2023-05-07T01:53:03;4.22;;;2.10;;
39074;SDS011;24826;52.070;20.970;2023-05-07T01:55:47;4.55;;;2.53;;
39074;SDS011;24826;52.070;20.970;2023-05-07T01:58:32;4.97;;;2.75;;
39074;SDS011;24826;52.070;20.970;2023-05-07T02:01:16;4.78;;;2.78;;
39074;SDS011;24826;52.070;20.970;2023-05-07T02:04:01;6.45;;;2.88;;
39074;SDS011;24826;52.070;20.970;2023-05-07T02:06:46;4.32;;;2.35;;
39074;SDS011;24826;52.070;20.970;2023-05-07T02:09:30;5.50;;;2.47;;
39074;SDS011;24826;52.070;20.970;2023-05-07T02:12:14;4.65;;;2.67;;
39074;SDS011;24826;52.070;20.970;2023-05-07T02:14:59;5.57;;;2.67;;
39074;SDS011;24826;52.070;20.970;2023-05-07T02:20:52;3.95;;;2.10;;
39074;SDS011;24826;52.070;20.970;2023-05-07T02:23:37;5.22;;;2.65;;
39074;SDS011;24826;52.070;20.970;2023-05-07T02:26:21;4.70;;;2.13;;
39074;SDS011;24826;52.070;20.970;2023-05-07T02:29:06;4.32;;;2.38;;
39074;SDS011;24826;52.070;20.970;2023-05-07T02:31:50;5.63;;;2.38;;
39074;SDS011;24826;52.070;20.970;2023-05-07T02:34:36;4.18;;;2.22;;
39074;SDS011;24826;52.070;20.970;2023-05-07T02:37:21;3.95;;;2.20;;
39074;SDS011;24826;52.070;20.970;2023-05-07T02:40:05;4.72;;;2.15;;
39074;SDS011;24826;52.070;20.970;2023-05-07T02:42:50;4.20;;;2.38;;
39074;SDS011;24826;52.070;20.970;2023-05-07T02:45:35;4.78;;;2.35;;
39074;SDS011;24826;52.070;20.970;2023-05-07T02:48:21;4.68;;;2.42;;
39074;SDS011;24826;52.070;20.970;2023-05-07T02:51:05;3.78;;;2.20;;
39074;SDS011;24826;52.070;20.970;2023-05-07T02:53:50;15.48;;;2.63;;
39074;SDS011;24826;52.070;20.970;2023-05-07T02:56:34;4.03;;;2.47;;
39074;SDS011;24826;52.070;20.970;2023-05-07T02:59:18;4.18;;;2.22;;
39074;SDS011;24826;52.070;20.970;2023-05-07T03:02:03;4.25;;;2.25;;
39074;SDS011;24826;52.070;20.970;2023-05-07T03:04:47;5.07;;;3.28;;
39074;SDS011;24826;52.070;20.970;2023-05-07T03:07:31;4.38;;;2.00;;
39074;SDS011;24826;52.070;20.970;2023-05-07T03:10:16;4.28;;;2.05;;
39074;SDS011;24826;52.070;20.970;2023-05-07T03:13:00;3.95;;;1.90;;
39074;SDS011;24826;52.070;20.970;2023-05-07T03:15:45;3.90;;;2.00;;
39074;SDS011;24826;52.070;20.970;2023-05-07T03:18:29;5.93;;;2.55;;
39074;SDS011;24826;52.070;20.970;2023-05-07T03:21:14;4.50;;;2.30;;
39074;SDS011;24826;52.070;20.970;2023-05-07T03:23:59;5.03;;;2.38;;
39074;SDS011;24826;52.070;20.970;2023-05-07T03:26:43;4.22;;;2.28;;
39074;SDS011;24826;52.070;20.970;2023-05-07T03:29:28;3.78;;;1.75;;
39074;SDS011;24826;52.070;20.970;2023-05-07T03:32:12;4.82;;;2.03;;
39074;SDS011;24826;52.070;20.970;2023-05-07T03:34:56;3.88;;;2.17;;
39074;SDS011;24826;52.070;20.970;2023-05-07T03:37:40;3.88;;;1.80;;
39074;SDS011;24826;52.070;20.970;2023-05-07T03:40:26;3.65;;;1.90;;
39074;SDS011;24826;52.070;20.970;2023-05-07T03:43:10;3.53;;;2.00;;
39074;SDS011;24826;52.070;20.970;2023-05-07T03:45:55;3.78;;;1.92;;
39074;SDS011;24826;52.070;20.970;2023-05-07T03:48:39;3.22;;;1.77;;
39074;SDS011;24826;52.070;20.970;2023-05-07T03:51:24;4.55;;;2.17;;
39074;SDS011;24826;52.070;20.970;2023-05-07T03:54:10;3.72;;;1.98;;
39074;SDS011;24826;52.070;20.970;2023-05-07T03:56:55;4.43;;;2.00;;
39074;SDS011;24826;52.070;20.970;2023-05-07T03:59:39;3.55;;;1.73;;
39074;SDS011;24826;52.070;20.970;2023-05-07T04:02:24;4.43;;;2.03;;
39074;SDS011;24826;52.070;20.970;2023-05-07T04:05:08;4.10;;;2.13;;
39074;SDS011;24826;52.070;20.970;2023-05-07T04:07:53;3.55;;;1.90;;
39074;SDS011;24826;52.070;20.970;2023-05-07T04:10:36;4.55;;;1.80;;
39074;SDS011;24826;52.070;20.970;2023-05-07T04:13:21;3.85;;;2.00;;
39074;SDS011;24826;52.070;20.970;2023-05-07T04:16:05;3.60;;;1.92;;
39074;SDS011;24826;52.070;20.970;2023-05-07T04:18:50;4.15;;;2.20;;
39074;SDS011;24826;52.070;20.970;2023-05-07T04:21:35;3.50;;;1.70;;
39074;SDS011;24826;52.070;20.970;2023-05-07T04:24:19;3.60;;;1.70;;
39074;SDS011;24826;52.070;20.970;2023-05-07T04:27:04;2.95;;;1.70;;
39074;SDS011;24826;52.070;20.970;2023-05-07T04:29:48;4.80;;;1.60;;
39074;SDS011;24826;52.070;20.970;2023-05-07T04:32:32;3.97;;;1.75;;
39074;SDS011;24826;52.070;20.970;2023-05-07T04:35:16;3.72;;;1.80;;
39074;SDS011;24826;52.070;20.970;2023-05-07T04:38:01;3.75;;;1.67;;
39074;SDS011;24826;52.070;20.970;2023-05-07T04:40:45;3.70;;;1.90;;
39074;SDS011;24826;52.070;20.970;2023-05-07T04:43:30;4.13;;;1.88;;
39074;SDS011;24826;52.070;20.970;2023-05-07T04:46:15;3.95;;;1.90;;
39074;SDS011;24826;52.070;20.970;2023-05-07T04:48:59;3.70;;;1.80;;
39074;SDS011;24826;52.070;20.970;2023-05-07T04:51:43;3.40;;;1.75;;
39074;SDS011;24826;52.070;20.970;2023-05-07T04:54:28;3.50;;;1.73;;
39074;SDS011;24826;52.070;20.970;2023-05-07T04:57:12;3.25;;;1.58;;
39074;SDS011;24826;52.070;20.970;2023-05-07T04:59:57;3.92;;;1.80;;
39074;SDS011;24826;52.070;20.970;2023-05-07T05:02:41;4.18;;;2.00;;
39074;SDS011;24826;52.070;20.970;2023-05-07T05:05:26;3.47;;;1.75;;
39074;SDS011;24826;52.070;20.970;2023-05-07T05:08:10;4.07;;;1.90;;
39074;SDS011;24826;52.070;20.970;2023-05-07T05:10:55;4.15;;;1.90;;
39074;SDS011;24826;52.070;20.970;2023-05-07T05:13:40;4.03;;;1.63;;
39074;SDS011;24826;52.070;20.970;2023-05-07T05:16:24;3.70;;;1.67;;
39074;SDS011;24826;52.070;20.970;2023-05-07T05:19:09;3.30;;;1.70;;
39074;SDS011;24826;52.070;20.970;2023-05-07T05:21:53;3.28;;;1.75;;
39074;SDS011;24826;52.070;20.970;2023-05-07T05:24:38;3.30;;;1.63;;
39074;SDS011;24826;52.070;20.970;2023-05-07T05:27:22;3.58;;;1.42;;
39074;SDS011;24826;52.070;20.970;2023-05-07T05:30:07;4.22;;;1.80;;
39074;SDS011;24826;52.070;20.970;2023-05-07T05:32:51;3.10;;;1.70;;
39074;SDS011;24826;52.070;20.970;2023-05-07T05:35:35;2.85;;;1.50;;
39074;SDS011;24826;52.070;20.970;2023-05-07T05:38:20;4.00;;;1.90;;
39074;SDS011;24826;52.070;20.970;2023-05-07T05:41:04;3.28;;;1.60;;
39074;SDS011;24826;52.070;20.970;2023-05-07T05:43:49;3.03;;;1.52;;
39074;SDS011;24826;52.070;20.970;2023-05-07T05:46:33;3.10;;;1.48;;
39074;SDS011;24826;52.070;20.970;2023-05-07T05:49:18;3.40;;;1.70;;
39074;SDS011;24826;52.070;20.970;2023-05-07T05:52:03;4.07;;;2.00;;
39074;SDS011;24826;52.070;20.970;2023-05-07T05:54:47;2.67;;;1.30;;
39074;SDS011;24826;52.070;20.970;2023-05-07T05:57:32;3.13;;;1.50;;
39074;SDS011;24826;52.070;20.970;2023-05-07T06:00:16;4.57;;;1.75;;
39074;SDS011;24826;52.070;20.970;2023-05-07T06:03:01;3.53;;;1.60;;
39074;SDS011;24826;52.070;20.970;2023-05-07T06:05:46;3.72;;;1.83;;
39074;SDS011;24826;52.070;20.970;2023-05-07T06:08:30;2.90;;;1.70;;
39074;SDS011;24826;52.070;20.970;2023-05-07T06:11:14;2.40;;;1.15;;
39074;SDS011;24826;52.070;20.970;2023-05-07T06:13:59;4.70;;;1.60;;
39074;SDS011;24826;52.070;20.970;2023-05-07T06:16:43;3.97;;;1.40;;
39074;SDS011;24826;52.070;20.970;2023-05-07T06:19:28;3.05;;;1.38;;
39074;SDS011;24826;52.070;20.970;2023-05-07T06:22:12;3.15;;;1.42;;
39074;SDS011;24826;52.070;20.970;2023-05-07T06:24:56;3.58;;;1.50;;
39074;SDS011;24826;52.070;20.970;2023-05-07T06:27:40;3.70;;;1.88;;
39074;SDS011;24826;52.070;20.970;2023-05-07T06:30:25;2.85;;;1.45;;
39074;SDS011;24826;52.070;20.970;2023-05-07T06:33:10;3.78;;;1.83;;
39074;SDS011;24826;52.070;20.970;2023-05-07T06:35:55;4.05;;;1.30;;
39074;SDS011;24826;52.070;20.970;2023-05-07T06:38:39;2.90;;;1.40;;
39074;SDS011;24826;52.070;20.970;2023-05-07T06:41:24;3.17;;;1.63;;
39074;SDS011;24826;52.070;20.970;2023-05-07T06:44:09;4.03;;;1.63;;
39074;SDS011;24826;52.070;20.970;2023-05-07T06:46:54;3.58;;;1.40;;
39074;SDS011;24826;52.070;20.970;2023-05-07T06:49:38;2.53;;;1.30;;
39074;SDS011;24826;52.070;20.970;2023-05-07T06:52:22;3.35;;;1.77;;
39074;SDS011;24826;52.070;20.970;2023-05-07T06:55:07;3.35;;;1.60;;
39074;SDS011;24826;52.070;20.970;2023-05-07T06:57:52;3.65;;;1.55;;
39074;SDS011;24826;52.070;20.970;2023-05-07T07:00:36;3.17;;;1.45;;
39074;SDS011;24826;52.070;20.970;2023-05-07T07:03:21;3.33;;;1.60;;
39074;SDS011;24826;52.070;20.970;2023-05-07T07:06:05;3.50;;;1.63;;
39074;SDS011;24826;52.070;20.970;2023-05-07T07:08:50;2.95;;;1.55;;
39074;SDS011;24826;52.070;20.970;2023-05-07T07:11:34;2.47;;;1.25;;
39074;SDS011;24826;52.070;20.970;2023-05-07T07:14:19;2.72;;;1.25;;
39074;SDS011;24826;52.070;20.970;2023-05-07T07:17:04;3.10;;;1.40;;
39074;SDS011;24826;52.070;20.970;2023-05-07T07:19:49;2.53;;;1.30;;
39074;SDS011;24826;52.070;20.970;2023-05-07T07:22:33;3.17;;;1.25;;
39074;SDS011;24826;52.070;20.970;2023-05-07T07:25:17;3.38;;;1.23;;
39074;SDS011;24826;52.070;20.970;2023-05-07T07:28:02;2.08;;;1.15;;
39074;SDS011;24826;52.070;20.970;2023-05-07T07:30:47;4.85;;;1.40;;
39074;SDS011;24826;52.070;20.970;2023-05-07T07:33:31;2.22;;;1.10;;
39074;SDS011;24826;52.070;20.970;2023-05-07T07:36:15;4.43;;;1.38;;
39074;SDS011;24826;52.070;20.970;2023-05-07T07:39:00;2.90;;;1.20;;
39074;SDS011;24826;52.070;20.970;2023-05-07T07:41:44;2.95;;;1.20;;
39074;SDS011;24826;52.070;20.970;2023-05-07T07:44:28;2.97;;;1.40;;
39074;SDS011;24826;52.070;20.970;2023-05-07T07:47:13;2.95;;;1.30;;
39074;SDS011;24826;52.070;20.970;2023-05-07T07:49:57;4.88;;;1.30;;
39074;SDS011;24826;52.070;20.970;2023-05-07T07:52:42;2.83;;;1.30;;
39074;SDS011;24826;52.070;20.970;2023-05-07T07:55:26;2.85;;;1.38;;
39074;SDS011;24826;52.070;20.970;2023-05-07T07:58:11;3.20;;;1.80;;
39074;SDS011;24826;52.070;20.970;2023-05-07T08:00:55;5.88;;;1.45;;
39074;SDS011;24826;52.070;20.970;2023-05-07T08:03:40;2.70;;;1.27;;
39074;SDS011;24826;52.070;20.970;2023-05-07T08:06:24;4.70;;;1.35;;
39074;SDS011;24826;52.070;20.970;2023-05-07T08:09:10;4.97;;;1.75;;
39074;SDS011;24826;52.070;20.970;2023-05-07T08:11:54;6.10;;;1.23;;
39074;SDS011;24826;52.070;20.970;2023-05-07T08:14:39;8.13;;;1.67;;
39074;SDS011;24826;52.070;20.970;2023-05-07T08:17:23;10.43;;;1.40;;
39074;SDS011;24826;52.070;20.970;2023-05-07T08:20:08;6.25;;;2.05;;
39074;SDS011;24826;52.070;20.970;2023-05-07T08:22:52;5.50;;;2.33;;
39074;SDS011;24826;52.070;20.970;2023-05-07T08:25:37;5.15;;;2.50;;
39074;SDS011;24826;52.070;20.970;2023-05-07T08:28:21;7.75;;;3.10;;
39074;SDS011;24826;52.070;20.970;2023-05-07T08:31:06;16.70;;;8.90;;
39074;SDS011;24826;52.070;20.970;2023-05-07T08:33:50;16.88;;;6.38;;
39074;SDS011;24826;52.070;20.970;2023-05-07T08:36:34;19.08;;;6.70;;
39074;SDS011;24826;52.070;20.970;2023-05-07T08:39:18;18.98;;;7.53;;
39074;SDS011;24826;52.070;20.970;2023-05-07T08:42:03;12.10;;;5.22;;
39074;SDS011;24826;52.070;20.970;2023-05-07T08:44:51;11.55;;;5.38;;
39074;SDS011;24826;52.070;20.970;2023-05-07T08:47:46;16.45;;;9.02;;
39074;SDS011;24826;52.070;20.970;2023-05-07T08:50:35;7.80;;;4.47;;
39074;SDS011;24826;52.070;20.970;2023-05-07T08:53:22;11.82;;;5.47;;
39074;SDS011;24826;52.070;20.970;2023-05-07T08:56:08;11.50;;;5.55;;
39074;SDS011;24826;52.070;20.970;2023-05-07T08:58:53;13.05;;;5.95;;
39074;SDS011;24826;52.070;20.970;2023-05-07T09:01:40;10.65;;;5.20;;
39074;SDS011;24826;52.070;20.970;2023-05-07T09:04:25;9.27;;;4.55;;
39074;SDS011;24826;52.070;20.970;2023-05-07T09:07:09;9.77;;;4.95;;
39074;SDS011;24826;52.070;20.970;2023-05-07T09:09:55;8.38;;;4.80;;
39074;SDS011;24826;52.070;20.970;2023-05-07T09:12:39;10.77;;;5.13;;
39074;SDS011;24826;52.070;20.970;2023-05-07T09:15:24;8.77;;;4.72;;
39074;SDS011;24826;52.070;20.970;2023-05-07T09:18:10;10.70;;;4.80;;
39074;SDS011;24826;52.070;20.970;2023-05-07T09:20:54;7.60;;;4.25;;
39074;SDS011;24826;52.070;20.970;2023-05-07T09:23:39;8.57;;;4.18;;
39074;SDS011;24826;52.070;20.970;2023-05-07T09:26:24;6.38;;;3.80;;
39074;SDS011;24826;52.070;20.970;2023-05-07T09:29:10;5.63;;;3.17;;
39074;SDS011;24826;52.070;20.970;2023-05-07T09:31:54;8.02;;;3.90;;
39074;SDS011;24826;52.070;20.970;2023-05-07T09:34:39;6.40;;;3.35;;
39074;SDS011;24826;52.070;20.970;2023-05-07T09:37:23;8.80;;;2.97;;
39074;SDS011;24826;52.070;20.970;2023-05-07T09:40:19;6.90;;;3.08;;
39074;SDS011;24826;52.070;20.970;2023-05-07T09:43:09;5.75;;;2.88;;
39074;SDS011;24826;52.070;20.970;2023-05-07T09:45:55;5.03;;;2.58;;
39074;SDS011;24826;52.070;20.970;2023-05-07T09:48:41;5.13;;;2.55;;
39074;SDS011;24826;52.070;20.970;2023-05-07T09:52:09;5.50;;;2.70;;
39074;SDS011;24826;52.070;20.970;2023-05-07T09:54:35;4.75;;;2.75;;
39074;SDS011;24826;52.070;20.970;2023-05-07T09:57:21;5.65;;;2.47;;
39074;SDS011;24826;52.070;20.970;2023-05-07T10:00:08;6.07;;;2.42;;
39074;SDS011;24826;52.070;20.970;2023-05-07T10:02:54;5.55;;;2.30;;
39074;SDS011;24826;52.070;20.970;2023-05-07T10:05:41;4.10;;;2.10;;
39074;SDS011;24826;52.070;20.970;2023-05-07T10:08:27;5.05;;;2.60;;
39074;SDS011;24826;52.070;20.970;2023-05-07T10:11:12;5.78;;;2.17;;
39074;SDS011;24826;52.070;20.970;2023-05-07T10:13:58;6.13;;;2.38;;
39074;SDS011;24826;52.070;20.970;2023-05-07T10:16:45;6.78;;;3.05;;
39074;SDS011;24826;52.070;20.970;2023-05-07T10:19:31;7.80;;;2.08;;
39074;SDS011;24826;52.070;20.970;2023-05-07T10:22:17;3.47;;;1.92;;
39074;SDS011;24826;52.070;20.970;2023-05-07T10:25:02;4.57;;;1.88;;
39074;SDS011;24826;52.070;20.970;2023-05-07T10:27:48;3.88;;;1.70;;
39074;SDS011;24826;52.070;20.970;2023-05-07T10:33:39;7.97;;;2.42;;
39074;SDS011;24826;52.070;20.970;2023-05-07T10:36:25;3.58;;;1.60;;
39074;SDS011;24826;52.070;20.970;2023-05-07T10:39:11;6.90;;;1.92;;
39074;SDS011;24826;52.070;20.970;2023-05-07T10:41:55;6.50;;;2.63;;
39074;SDS011;24826;52.070;20.970;2023-05-07T10:44:40;6.70;;;2.40;;
39074;SDS011;24826;52.070;20.970;2023-05-07T10:47:25;6.80;;;2.10;;
39074;SDS011;24826;52.070;20.970;2023-05-07T10:59:36;7.22;;;3.08;;
39074;SDS011;24826;52.070;20.970;2023-05-07T11:02:15;5.10;;;2.90;;
39074;SDS011;24826;52.070;20.970;2023-05-07T11:08:05;7.53;;;3.10;;
39074;SDS011;24826;52.070;20.970;2023-05-07T11:10:56;5.15;;;2.92;;
39074;SDS011;24826;52.070;20.970;2023-05-07T11:13:48;6.47;;;3.05;;
39074;SDS011;24826;52.070;20.970;2023-05-07T11:16:33;10.43;;;2.38;;
39074;SDS011;24826;52.070;20.970;2023-05-07T11:19:47;6.10;;;2.38;;
39074;SDS011;24826;52.070;20.970;2023-05-07T11:25:21;5.68;;;2.63;;
39074;SDS011;24826;52.070;20.970;2023-05-07T11:28:07;5.45;;;2.58;;
39074;SDS011;24826;52.070;20.970;2023-05-07T11:30:54;5.45;;;2.45;;
39074;SDS011;24826;52.070;20.970;2023-05-07T11:33:39;4.35;;;2.20;;
39074;SDS011;24826;52.070;20.970;2023-05-07T11:36:25;5.25;;;2.60;;
39074;SDS011;24826;52.070;20.970;2023-05-07T11:39:47;6.30;;;2.25;;
39074;SDS011;24826;52.070;20.970;2023-05-07T11:42:36;3.92;;;2.03;;
39074;SDS011;24826;52.070;20.970;2023-05-07T11:45:24;5.50;;;2.22;;
39074;SDS011;24826;52.070;20.970;2023-05-07T11:48:09;5.03;;;2.05;;
39074;SDS011;24826;52.070;20.970;2023-05-07T11:50:59;4.82;;;2.40;;
39074;SDS011;24826;52.070;20.970;2023-05-07T11:53:49;4.78;;;2.33;;
39074;SDS011;24826;52.070;20.970;2023-05-07T11:56:34;6.43;;;2.20;;
39074;SDS011;24826;52.070;20.970;2023-05-07T11:59:22;5.40;;;2.55;;
39074;SDS011;24826;52.070;20.970;2023-05-07T12:02:07;3.88;;;2.20;;
39074;SDS011;24826;52.070;20.970;2023-05-07T12:04:52;5.03;;;2.35;;
39074;SDS011;24826;52.070;20.970;2023-05-07T12:07:37;5.65;;;2.65;;
39074;SDS011;24826;52.070;20.970;2023-05-07T12:10:21;5.43;;;2.85;;
39074;SDS011;24826;52.070;20.970;2023-05-07T12:13:13;7.38;;;3.15;;
39074;SDS011;24826;52.070;20.970;2023-05-07T12:15:59;4.00;;;2.55;;
39074;SDS011;24826;52.070;20.970;2023-05-07T12:18:43;7.75;;;2.30;;
39074;SDS011;24826;52.070;20.970;2023-05-07T12:21:29;4.22;;;2.58;;
39074;SDS011;24826;52.070;20.970;2023-05-07T12:24:16;4.47;;;2.33;;
39074;SDS011;24826;52.070;20.970;2023-05-07T12:27:01;4.10;;;2.13;;
39074;SDS011;24826;52.070;20.970;2023-05-07T12:29:46;7.47;;;2.72;;
39074;SDS011;24826;52.070;20.970;2023-05-07T12:32:31;5.47;;;2.20;;
39074;SDS011;24826;52.070;20.970;2023-05-07T12:35:35;4.35;;;2.13;;
39074;SDS011;24826;52.070;20.970;2023-05-07T12:38:23;4.97;;;2.55;;
39074;SDS011;24826;52.070;20.970;2023-05-07T12:41:09;5.82;;;2.90;;
39074;SDS011;24826;52.070;20.970;2023-05-07T12:43:55;4.03;;;2.30;;
39074;SDS011;24826;52.070;20.970;2023-05-07T12:46:41;11.60;;;2.97;;
39074;SDS011;24826;52.070;20.970;2023-05-07T12:49:25;6.75;;;2.47;;
39074;SDS011;24826;52.070;20.970;2023-05-07T12:52:11;6.40;;;2.72;;
39074;SDS011;24826;52.070;20.970;2023-05-07T12:54:55;7.32;;;2.35;;
39074;SDS011;24826;52.070;20.970;2023-05-07T12:57:41;5.65;;;2.15;;
39074;SDS011;24826;52.070;20.970;2023-05-07T13:00:36;4.28;;;2.10;;
39074;SDS011;24826;52.070;20.970;2023-05-07T13:03:31;6.03;;;2.30;;
39074;SDS011;24826;52.070;20.970;2023-05-07T13:06:16;13.20;;;2.33;;
39074;SDS011;24826;52.070;20.970;2023-05-07T13:09:01;5.72;;;2.63;;
39074;SDS011;24826;52.070;20.970;2023-05-07T13:11:45;5.05;;;2.42;;
39074;SDS011;24826;52.070;20.970;2023-05-07T13:14:29;7.13;;;2.28;;
39074;SDS011;24826;52.070;20.970;2023-05-07T13:17:13;6.68;;;2.30;;
39074;SDS011;24826;52.070;20.970;2023-05-07T13:19:58;3.78;;;1.80;;
39074;SDS011;24826;52.070;20.970;2023-05-07T13:22:42;4.70;;;2.03;;
39074;SDS011;24826;52.070;20.970;2023-05-07T13:25:26;5.15;;;2.10;;
39074;SDS011;24826;52.070;20.970;2023-05-07T13:28:10;3.85;;;1.75;;
39074;SDS011;24826;52.070;20.970;2023-05-07T13:30:55;4.55;;;1.80;;
39074;SDS011;24826;52.070;20.970;2023-05-07T13:33:39;5.32;;;1.92;;
39074;SDS011;24826;52.070;20.970;2023-05-07T13:36:24;5.22;;;1.83;;
39074;SDS011;24826;52.070;20.970;2023-05-07T13:39:08;5.13;;;1.80;;
39074;SDS011;24826;52.070;20.970;2023-05-07T13:41:52;3.97;;;1.52;;
39074;SDS011;24826;52.070;20.970;2023-05-07T13:44:37;4.05;;;1.95;;
39074;SDS011;24826;52.070;20.970;2023-05-07T13:47:21;4.63;;;1.80;;
39074;SDS011;24826;52.070;20.970;2023-05-07T13:50:05;4.20;;;1.50;;
39074;SDS011;24826;52.070;20.970;2023-05-07T13:52:51;3.22;;;1.70;;
39074;SDS011;24826;52.070;20.970;2023-05-07T13:55:35;4.03;;;1.90;;
39074;SDS011;24826;52.070;20.970;2023-05-07T13:58:19;3.22;;;1.60;;
39074;SDS011;24826;52.070;20.970;2023-05-07T14:01:03;2.90;;;1.63;;
39074;SDS011;24826;52.070;20.970;2023-05-07T14:03:48;5.05;;;2.05;;
39074;SDS011;24826;52.070;20.970;2023-05-07T14:06:33;4.05;;;1.50;;
39074;SDS011;24826;52.070;20.970;2023-05-07T14:09:17;4.60;;;1.60;;
39074;SDS011;24826;52.070;20.970;2023-05-07T14:12:01;3.47;;;1.75;;
39074;SDS011;24826;52.070;20.970;2023-05-07T14:14:46;3.40;;;1.42;;
39074;SDS011;24826;52.070;20.970;2023-05-07T14:17:30;6.00;;;1.83;;
39074;SDS011;24826;52.070;20.970;2023-05-07T14:20:15;3.80;;;1.52;;
39074;SDS011;24826;52.070;20.970;2023-05-07T14:22:59;4.43;;;1.70;;
39074;SDS011;24826;52.070;20.970;2023-05-07T14:25:44;4.50;;;2.10;;
39074;SDS011;24826;52.070;20.970;2023-05-07T14:28:31;3.55;;;1.50;;
39074;SDS011;24826;52.070;20.970;2023-05-07T14:31:16;4.50;;;1.73;;
39074;SDS011;24826;52.070;20.970;2023-05-07T14:34:01;4.80;;;1.50;;
39074;SDS011;24826;52.070;20.970;2023-05-07T14:36:46;3.75;;;2.00;;
39074;SDS011;24826;52.070;20.970;2023-05-07T14:39:31;5.00;;;2.42;;
39074;SDS011;24826;52.070;20.970;2023-05-07T14:42:15;5.70;;;3.03;;
39074;SDS011;24826;52.070;20.970;2023-05-07T14:45:00;4.32;;;2.17;;
39074;SDS011;24826;52.070;20.970;2023-05-07T14:47:45;4.60;;;2.30;;
39074;SDS011;24826;52.070;20.970;2023-05-07T14:50:29;5.25;;;1.70;;
39074;SDS011;24826;52.070;20.970;2023-05-07T14:53:14;4.68;;;1.88;;
39074;SDS011;24826;52.070;20.970;2023-05-07T14:55:59;3.63;;;1.67;;
39074;SDS011;24826;52.070;20.970;2023-05-07T14:58:45;3.25;;;1.55;;
39074;SDS011;24826;52.070;20.970;2023-05-07T15:01:30;3.88;;;1.70;;
39074;SDS011;24826;52.070;20.970;2023-05-07T15:04:15;3.85;;;1.90;;
39074;SDS011;24826;52.070;20.970;2023-05-07T15:07:00;4.18;;;1.52;;
39074;SDS011;24826;52.070;20.970;2023-05-07T15:09:44;4.55;;;1.73;;
39074;SDS011;24826;52.070;20.970;2023-05-07T15:12:29;5.45;;;1.50;;
39074;SDS011;24826;52.070;20.970;2023-05-07T15:15:13;4.00;;;1.60;;
39074;SDS011;24826;52.070;20.970;2023-05-07T15:17:58;4.68;;;1.60;;
39074;SDS011;24826;52.070;20.970;2023-05-07T15:20:44;2.95;;;1.58;;
39074;SDS011;24826;52.070;20.970;2023-05-07T15:23:28;3.92;;;1.70;;
39074;SDS011;24826;52.070;20.970;2023-05-07T15:26:13;3.65;;;1.48;;
39074;SDS011;24826;52.070;20.970;2023-05-07T15:28:57;4.57;;;2.05;;
39074;SDS011;24826;52.070;20.970;2023-05-07T15:31:42;4.05;;;1.98;;
39074;SDS011;24826;52.070;20.970;2023-05-07T15:34:27;4.03;;;1.65;;
39074;SDS011;24826;52.070;20.970;2023-05-07T15:37:12;4.90;;;1.50;;
39074;SDS011;24826;52.070;20.970;2023-05-07T15:39:56;5.32;;;2.15;;
39074;SDS011;24826;52.070;20.970;2023-05-07T15:42:41;7.38;;;1.92;;
39074;SDS011;24826;52.070;20.970;2023-05-07T15:45:26;3.35;;;1.75;;
39074;SDS011;24826;52.070;20.970;2023-05-07T15:48:11;4.55;;;2.25;;
39074;SDS011;24826;52.070;20.970;2023-05-07T15:50:55;3.45;;;1.70;;
39074;SDS011;24826;52.070;20.970;2023-05-07T15:53:40;6.05;;;1.92;;
39074;SDS011;24826;52.070;20.970;2023-05-07T15:56:25;2.95;;;1.45;;
39074;SDS011;24826;52.070;20.970;2023-05-07T15:59:10;4.60;;;1.90;;
39074;SDS011;24826;52.070;20.970;2023-05-07T16:01:55;4.68;;;2.03;;
39074;SDS011;24826;52.070;20.970;2023-05-07T16:04:40;4.72;;;2.10;;
39074;SDS011;24826;52.070;20.970;2023-05-07T16:07:24;4.18;;;2.03;;
39074;SDS011;24826;52.070;20.970;2023-05-07T16:10:10;3.42;;;1.88;;
39074;SDS011;24826;52.070;20.970;2023-05-07T16:12:54;3.30;;;1.65;;
39074;SDS011;24826;52.070;20.970;2023-05-07T16:15:40;4.90;;;1.50;;
39074;SDS011;24826;52.070;20.970;2023-05-07T16:18:24;4.85;;;2.10;;
39074;SDS011;24826;52.070;20.970;2023-05-07T16:21:10;4.35;;;1.98;;
39074;SDS011;24826;52.070;20.970;2023-05-07T16:23:54;4.25;;;2.10;;
39074;SDS011;24826;52.070;20.970;2023-05-07T16:26:39;4.03;;;2.00;;
39074;SDS011;24826;52.070;20.970;2023-05-07T16:29:24;4.20;;;1.70;;
39074;SDS011;24826;52.070;20.970;2023-05-07T16:32:08;3.63;;;2.00;;
39074;SDS011;24826;52.070;20.970;2023-05-07T16:34:53;5.22;;;1.92;;
39074;SDS011;24826;52.070;20.970;2023-05-07T16:37:40;4.72;;;2.40;;
39074;SDS011;24826;52.070;20.970;2023-05-07T16:40:25;3.92;;;2.17;;
39074;SDS011;24826;52.070;20.970;2023-05-07T16:43:10;4.05;;;2.03;;